OYPBN EKRK-EKBI
Flight info
| Callsign | OYPBN |
|---|---|
| Flight time | N/A |
| Altitude | 14000 |
| Route | DOBEL DCT ODDON DCT LOKSA |
| Aircraft | C414/L-SBDFGRY/S |
Departure
| Time | 2026-04-30 09:36 |
|---|---|
| Airport | Copenhagen Roskilde Airport (EKRK) |
Arrival
| Time | N/A |
|---|---|
| Airport | Billund Airport (EKBI) |
| Time | Latitude | Longitude | Altitude | Speed | Heading |
|---|---|---|---|---|---|
| 2026-04-30 09:36 | 55.59352 | 11.63744 | 8710 ft | 173 kts | 280° |
| 2026-04-30 09:36 | 55.59461 | 11.61622 | 8889 ft | 173 kts | 280° |
| 2026-04-30 09:37 | 55.59567 | 11.59567 | 9064 ft | 174 kts | 280° |
| 2026-04-30 09:37 | 55.59679 | 11.57439 | 9245 ft | 174 kts | 281° |
| 2026-04-30 09:37 | 55.59797 | 11.55304 | 9426 ft | 175 kts | 281° |
| 2026-04-30 09:37 | 55.59908 | 11.53158 | 9608 ft | 176 kts | 279° |
| 2026-04-30 09:38 | 55.59994 | 11.51002 | 9795 ft | 176 kts | 280° |
| 2026-04-30 09:38 | 55.60104 | 11.48848 | 9980 ft | 176 kts | 281° |
| 2026-04-30 09:38 | 55.60220 | 11.46687 | 10165 ft | 176 kts | 281° |
| 2026-04-30 09:38 | 55.60330 | 11.44549 | 10348 ft | 177 kts | 281° |
| 2026-04-30 09:39 | 55.60439 | 11.42377 | 10518 ft | 176 kts | 281° |
| 2026-04-30 09:39 | 55.60545 | 11.40224 | 10682 ft | 175 kts | 281° |
| 2026-04-30 09:39 | 55.60583 | 11.38078 | 10848 ft | 176 kts | 271° |
| 2026-04-30 09:39 | 55.60501 | 11.35927 | 11015 ft | 174 kts | 273° |
| 2026-04-30 09:40 | 55.60450 | 11.34059 | 11158 ft | 174 kts | 273° |
| 2026-04-30 09:40 | 55.60387 | 11.31918 | 11325 ft | 174 kts | 272° |
| 2026-04-30 09:40 | 55.60319 | 11.29783 | 11495 ft | 174 kts | 272° |
| 2026-04-30 09:40 | 55.60249 | 11.27647 | 11666 ft | 174 kts | 273° |
| 2026-04-30 09:41 | 55.60183 | 11.25512 | 11838 ft | 174 kts | 273° |
| 2026-04-30 09:41 | 55.60114 | 11.23384 | 12009 ft | 173 kts | 273° |
| 2026-04-30 09:41 | 55.60046 | 11.21261 | 12182 ft | 173 kts | 272° |
| 2026-04-30 09:41 | 55.59977 | 11.19143 | 12348 ft | 173 kts | 272° |
| 2026-04-30 09:42 | 55.59907 | 11.17017 | 12484 ft | 176 kts | 272° |
| 2026-04-30 09:42 | 55.59836 | 11.14804 | 12492 ft | 185 kts | 272° |
| 2026-04-30 09:42 | 55.59761 | 11.12495 | 12500 ft | 191 kts | 271° |
| 2026-04-30 09:42 | 55.59681 | 11.10120 | 12500 ft | 196 kts | 271° |
| 2026-04-30 09:43 | 55.59600 | 11.07730 | 12502 ft | 199 kts | 271° |
| 2026-04-30 09:43 | 55.59517 | 11.05277 | 12501 ft | 201 kts | 271° |
| 2026-04-30 09:43 | 55.59433 | 11.02804 | 12499 ft | 202 kts | 271° |
| 2026-04-30 09:43 | 55.59349 | 11.00317 | 12500 ft | 203 kts | 271° |
| 2026-04-30 09:44 | 55.59264 | 10.97818 | 12499 ft | 204 kts | 271° |
| 2026-04-30 09:44 | 55.59176 | 10.95317 | 12500 ft | 204 kts | 271° |
| 2026-04-30 09:44 | 55.59088 | 10.92807 | 12501 ft | 205 kts | 271° |
| 2026-04-30 09:44 | 55.58995 | 10.90297 | 12500 ft | 205 kts | 271° |
| 2026-04-30 09:45 | 55.58914 | 10.87870 | 12499 ft | 205 kts | 271° |
| 2026-04-30 09:45 | 55.58833 | 10.85356 | 12499 ft | 205 kts | 271° |
| 2026-04-30 09:45 | 55.58740 | 10.82840 | 12499 ft | 205 kts | 271° |
| 2026-04-30 09:45 | 55.58662 | 10.80695 | 12500 ft | 205 kts | 271° |
| 2026-04-30 09:46 | 55.58573 | 10.78172 | 12500 ft | 205 kts | 271° |
| 2026-04-30 09:46 | 55.58480 | 10.75655 | 12499 ft | 205 kts | 271° |
| 2026-04-30 09:46 | 55.58389 | 10.73146 | 12488 ft | 205 kts | 271° |
| 2026-04-30 09:46 | 55.58298 | 10.70587 | 12312 ft | 211 kts | 270° |
| 2026-04-30 09:47 | 55.58202 | 10.68002 | 12050 ft | 209 kts | 270° |
| 2026-04-30 09:47 | 55.58133 | 10.65403 | 11577 ft | 212 kts | 278° |
| 2026-04-30 09:47 | 55.58455 | 10.62928 | 11124 ft | 209 kts | 291° |
| 2026-04-30 09:47 | 55.58859 | 10.60414 | 10669 ft | 210 kts | 290° |
| 2026-04-30 09:48 | 55.59237 | 10.57951 | 10205 ft | 210 kts | 289° |
| 2026-04-30 09:48 | 55.59608 | 10.55460 | 9709 ft | 210 kts | 286° |
| 2026-04-30 09:48 | 55.60039 | 10.53049 | 9205 ft | 202 kts | 309° |
| 2026-04-30 09:48 | 55.61138 | 10.51715 | 8724 ft | 190 kts | 350° |
| 2026-04-30 09:49 | 55.62440 | 10.51551 | 8256 ft | 187 kts | 3° |
| 2026-04-30 09:49 | 55.63740 | 10.51574 | 7791 ft | 187 kts | 3° |
| 2026-04-30 09:49 | 55.64973 | 10.50919 | 7320 ft | 193 kts | 325° |
| 2026-04-30 09:49 | 55.65647 | 10.48862 | 6871 ft | 201 kts | 281° |
| 2026-04-30 09:50 | 55.65364 | 10.46483 | 6512 ft | 200 kts | 241° |
| 2026-04-30 09:50 | 55.64618 | 10.44543 | 6490 ft | 182 kts | 235° |
| 2026-04-30 09:50 | 55.63868 | 10.42822 | 6474 ft | 172 kts | 233° |
| 2026-04-30 09:50 | 55.63127 | 10.41182 | 6474 ft | 169 kts | 232° |
| 2026-04-30 09:51 | 55.62400 | 10.39575 | 6476 ft | 166 kts | 232° |
| 2026-04-30 09:51 | 55.61684 | 10.38016 | 6479 ft | 165 kts | 232° |
| 2026-04-30 09:51 | 55.60961 | 10.36444 | 6476 ft | 164 kts | 232° |
| 2026-04-30 09:51 | 55.60245 | 10.34875 | 6477 ft | 164 kts | 232° |
| 2026-04-30 09:52 | 55.59533 | 10.33297 | 6479 ft | 164 kts | 233° |
| 2026-04-30 09:52 | 55.58820 | 10.31728 | 6483 ft | 163 kts | 232° |
| 2026-04-30 09:52 | 55.58109 | 10.30156 | 6490 ft | 165 kts | 233° |
| 2026-04-30 09:52 | 55.57403 | 10.28547 | 6488 ft | 166 kts | 233° |
| 2026-04-30 09:53 | 55.56686 | 10.26945 | 6489 ft | 167 kts | 233° |
| 2026-04-30 09:53 | 55.55973 | 10.25345 | 6491 ft | 164 kts | 233° |
| 2026-04-30 09:53 | 55.55269 | 10.23758 | 6495 ft | 165 kts | 233° |
| 2026-04-30 09:53 | 55.54562 | 10.22161 | 6494 ft | 165 kts | 233° |
| 2026-04-30 09:54 | 55.53843 | 10.20542 | 6494 ft | 169 kts | 233° |
| 2026-04-30 09:54 | 55.53111 | 10.18900 | 6498 ft | 171 kts | 233° |
| 2026-04-30 09:54 | 55.52370 | 10.17237 | 6502 ft | 172 kts | 233° |
| 2026-04-30 09:54 | 55.51629 | 10.15579 | 6386 ft | 180 kts | 233° |
| 2026-04-30 09:55 | 55.50833 | 10.13802 | 6128 ft | 187 kts | 233° |
| 2026-04-30 09:55 | 55.50011 | 10.11979 | 5734 ft | 192 kts | 233° |
| 2026-04-30 09:55 | 55.49169 | 10.10147 | 5421 ft | 191 kts | 233° |
| 2026-04-30 09:55 | 55.48339 | 10.08359 | 5146 ft | 186 kts | 232° |
| 2026-04-30 09:56 | 55.47524 | 10.06602 | 4860 ft | 184 kts | 234° |
| 2026-04-30 09:56 | 55.46706 | 10.04878 | 4581 ft | 182 kts | 233° |
| 2026-04-30 09:56 | 55.45917 | 10.03145 | 4294 ft | 179 kts | 237° |
| 2026-04-30 09:56 | 55.45218 | 10.01362 | 4015 ft | 176 kts | 238° |
| 2026-04-30 09:57 | 55.44319 | 9.99913 | 3732 ft | 177 kts | 215° |
| 2026-04-30 09:57 | 55.43274 | 9.98766 | 3462 ft | 178 kts | 215° |
| 2026-04-30 09:57 | 55.42207 | 9.97634 | 3187 ft | 180 kts | 214° |
| 2026-04-30 09:57 | 55.41039 | 9.96895 | 3014 ft | 181 kts | 181° |
| 2026-04-30 09:58 | 55.39954 | 9.97817 | 3017 ft | 176 kts | 133° |
| 2026-04-30 09:58 | 55.39259 | 9.99528 | 3021 ft | 169 kts | 118° |
| 2026-04-30 09:58 | 55.38853 | 10.01442 | 3021 ft | 164 kts | 100° |
| 2026-04-30 09:58 | 55.38733 | 10.03410 | 3015 ft | 160 kts | 89° |
| 2026-04-30 09:59 | 55.39130 | 10.07133 | 2970 ft | 155 kts | 61° |
| 2026-04-30 09:59 | 55.40188 | 10.10528 | 2501 ft | 160 kts | 56° |
| 2026-04-30 10:00 | 55.41261 | 10.13749 | 2026 ft | 140 kts | 55° |
| 2026-04-30 10:00 | 55.41728 | 10.15168 | 2018 ft | 128 kts | 54° |
| 2026-04-30 10:01 | 55.42583 | 10.17782 | 2004 ft | 124 kts | 56° |
| 2026-04-30 10:01 | 55.42911 | 10.19019 | 2011 ft | 124 kts | 64° |
| 2026-04-30 10:31 | 55.43060 | 10.19857 | 2046 ft | 120 kts | 67° |
| 2026-04-30 10:31 | 55.43362 | 10.21265 | 1953 ft | 124 kts | 43° |
| 2026-04-30 10:31 | 55.43977 | 10.22432 | 1738 ft | 131 kts | 43° |
| 2026-04-30 10:32 | 55.44520 | 10.23770 | 1554 ft | 136 kts | 54° |
| 2026-04-30 10:32 | 55.44986 | 10.25152 | 1254 ft | 127 kts | 53° |
| 2026-04-30 10:32 | 55.45451 | 10.26438 | 948 ft | 122 kts | 52° |
| 2026-04-30 10:32 | 55.45864 | 10.27681 | 708 ft | 114 kts | 57° |
| 2026-04-30 10:33 | 55.46261 | 10.28838 | 535 ft | 107 kts | 53° |
| 2026-04-30 10:33 | 55.46627 | 10.29957 | 361 ft | 103 kts | 57° |
| 2026-04-30 10:33 | 55.46987 | 10.31027 | 162 ft | 99 kts | 59° |
| 2026-04-30 10:33 | 55.47314 | 10.32015 | 53 ft | 85 kts | 59° |
| 2026-04-30 10:34 | 55.47506 | 10.32584 | 55 ft | 9 kts | 114° |
| 2026-04-30 10:34 | 55.47430 | 10.32647 | 54 ft | 14 kts | 134° |
| 2026-04-30 10:34 | 55.47363 | 10.32766 | 58 ft | 13 kts | 136° |
| 2026-04-30 10:34 | 55.47343 | 10.32799 | 56 ft | 13 kts | 136° |